Time;durP1;ratioP1;P1;durP2;ratioP2;P2;SDS_P1;SDS_P2;PMS_P1;PMS_P2;Temp;Humidity;BMP_temperature;BMP_pressure;BME280_temperature;BME280_humidity;BME280_pressure;Samples;Min_cycle;Max_cycle;Signal;HPM_P1;HPM_P2
2022/12/21 00:00:54;;;;;;;11.43;7.88;;;;;;;;;;5015747;28;20381;-61
2022/12/21 00:03:19;;;;;;;13.90;7.75;;;;;;;;;;5015614;28;20477;-60
2022/12/21 00:05:45;;;;;;;11.05;7.55;;;;;;;;;;5015563;28;20022;-60
2022/12/21 00:08:11;;;;;;;12.57;7.78;;;;;;;;;;5015140;28;20401;-60
2022/12/21 00:10:36;;;;;;;13.63;7.97;;;;;;;;;;5015257;28;20029;-61
2022/12/21 00:13:02;;;;;;;10.23;7.25;;;;;;;;;;5015044;28;20060;-60
2022/12/21 00:15:28;;;;;;;11.00;7.70;;;;;;;;;;5015166;28;20026;-61
2022/12/21 00:17:53;;;;;;;11.98;7.28;;;;;;;;;;5015169;28;20076;-60
2022/12/21 00:20:19;;;;;;;10.70;7.05;;;;;;;;;;5015238;28;20018;-60
2022/12/21 00:22:44;;;;;;;11.90;8.20;;;;;;;;;;5015252;28;20080;-60
2022/12/21 00:25:10;;;;;;;11.00;7.45;;;;;;;;;;5015120;28;20046;-60
2022/12/21 00:27:35;;;;;;;12.30;7.93;;;;;;;;;;5014913;28;20049;-62
2022/12/21 00:30:01;;;;;;;10.93;7.53;;;;;;;;;;5014709;28;20034;-61
2022/12/21 00:32:27;;;;;;;12.90;8.27;;;;;;;;;;5014835;28;20038;-63
2022/12/21 00:34:52;;;;;;;10.10;7.15;;;;;;;;;;5014766;28;20417;-62
2022/12/21 00:37:18;;;;;;;12.20;7.95;;;;;;;;;;5014459;28;20033;-63
2022/12/21 00:39:43;;;;;;;11.55;7.43;;;;;;;;;;5014665;28;20038;-63
2022/12/21 00:42:09;;;;;;;11.77;7.57;;;;;;;;;;5014454;28;20049;-63
2022/12/21 00:44:34;;;;;;;11.20;7.55;;;;;;;;;;5014624;28;20054;-62
2022/12/21 00:47:00;;;;;;;10.70;7.18;;;;;;;;;;5014405;28;20385;-60
2022/12/21 00:49:25;;;;;;;10.82;7.10;;;;;;;;;;5014574;28;20101;-60
2022/12/21 00:51:51;;;;;;;11.45;7.30;;;;;;;;;;5014669;28;20026;-60
2022/12/21 00:54:17;;;;;;;10.85;7.45;;;;;;;;;;5014424;28;20026;-60
2022/12/21 00:56:42;;;;;;;10.98;7.60;;;;;;;;;;5014210;28;20034;-61
2022/12/21 00:59:08;;;;;;;10.85;7.30;;;;;;;;;;5014306;28;20025;-60
2022/12/21 01:01:34;;;;;;;11.30;7.55;;;;;;;;;;5014207;28;20040;-60
2022/12/21 01:04:00;;;;;;;10.55;7.10;;;;;;;;;;5014241;28;20054;-61
2022/12/21 01:06:29;;;;;;;11.95;7.82;;;;;;;;;;5014415;28;20033;-60
2022/12/21 01:08:55;;;;;;;10.93;6.70;;;;;;;;;;5014150;28;20018;-60
2022/12/21 01:11:22;;;;;;;11.82;8.05;;;;;;;;;;5013965;28;20117;-60
2022/12/21 01:13:48;;;;;;;10.63;7.43;;;;;;;;;;5014004;28;20036;-62
2022/12/21 01:16:23;;;;;;;9.82;7.22;;;;;;;;;;5014121;28;20377;-61
2022/12/21 01:18:50;;;;;;;12.40;7.97;;;;;;;;;;5013973;28;20083;-61
2022/12/21 01:21:21;;;;;;;10.05;7.50;;;;;;;;;;5014157;28;20040;-61
2022/12/21 01:23:48;;;;;;;10.40;7.25;;;;;;;;;;5014197;28;20037;-60
2022/12/21 01:26:14;;;;;;;14.00;8.07;;;;;;;;;;5013736;28;20478;-62
2022/12/21 01:28:39;;;;;;;10.93;7.65;;;;;;;;;;5013982;28;20029;-60
2022/12/21 01:31:06;;;;;;;10.77;6.90;;;;;;;;;;4996351;28;20466;-60
2022/12/21 01:33:32;;;;;;;10.45;7.50;;;;;;;;;;5013565;28;20029;-61
2022/12/21 01:36:13;;;;;;;10.00;7.57;;;;;;;;;;5013656;28;20036;-60
2022/12/21 01:38:41;;;;;;;9.70;7.30;;;;;;;;;;5013504;28;20033;-60
2022/12/21 01:41:12;;;;;;;9.90;6.95;;;;;;;;;;5013060;28;20046;-59
2022/12/21 01:43:58;;;;;;;11.45;7.07;;;;;;;;;;5013121;28;20030;-61
2022/12/21 01:46:45;;;;;;;10.35;6.85;;;;;;;;;;5013435;28;20029;-59
2022/12/21 01:49:17;;;;;;;10.30;7.32;;;;;;;;;;5012985;28;20022;-60
2022/12/21 01:51:49;;;;;;;13.75;7.60;;;;;;;;;;5013272;28;20029;-61
2022/12/21 01:54:23;;;;;;;10.60;7.47;;;;;;;;;;5013582;28;20045;-62
2022/12/21 01:56:52;;;;;;;10.68;7.65;;;;;;;;;;5013410;28;20041;-61
2022/12/21 01:59:29;;;;;;;10.80;7.55;;;;;;;;;;5013133;28;20496;-60
2022/12/21 02:01:57;;;;;;;12.15;7.70;;;;;;;;;;5013459;28;20116;-60
2022/12/21 02:04:23;;;;;;;11.95;7.63;;;;;;;;;;5012974;28;20040;-61
2022/12/21 02:06:57;;;;;;;10.90;7.57;;;;;;;;;;5013297;28;20034;-62
2022/12/21 02:09:25;;;;;;;10.07;7.35;;;;;;;;;;5013023;28;20497;-60
2022/12/21 02:11:52;;;;;;;10.90;7.40;;;;;;;;;;5013001;28;20029;-61
2022/12/21 02:14:18;;;;;;;11.32;6.97;;;;;;;;;;5013009;28;20535;-61
2022/12/21 02:17:03;;;;;;;11.23;7.32;;;;;;;;;;5012961;28;20112;-61
2022/12/21 02:19:53;;;;;;;9.45;6.93;;;;;;;;;;5013044;28;20116;-61
2022/12/21 02:22:27;;;;;;;10.20;6.95;;;;;;;;;;5013119;28;20123;-61
2022/12/21 02:25:16;;;;;;;11.90;7.85;;;;;;;;;;5012874;28;20210;-61
2022/12/21 02:28:22;;;;;;;10.68;6.95;;;;;;;;;;5012720;28;20036;-61
2022/12/21 02:30:56;;;;;;;11.65;7.35;;;;;;;;;;5012869;28;20473;-61
2022/12/21 02:33:30;;;;;;;10.27;7.22;;;;;;;;;;5012670;28;20034;-61
2022/12/21 02:36:18;;;;;;;11.82;7.38;;;;;;;;;;5012791;28;20484;-61
2022/12/21 02:38:58;;;;;;;8.48;6.70;;;;;;;;;;5012664;28;20033;-60
2022/12/21 02:41:35;;;;;;;11.52;7.05;;;;;;;;;;5012461;28;20034;-61
2022/12/21 02:44:14;;;;;;;11.93;7.22;;;;;;;;;;5012673;28;20722;-60
2022/12/21 02:46:52;;;;;;;11.40;6.88;;;;;;;;;;5012723;28;20079;-61
2022/12/21 02:49:29;;;;;;;9.38;6.82;;;;;;;;;;5012557;28;20034;-61
2022/12/21 02:52:18;;;;;;;11.15;7.25;;;;;;;;;;5012855;28;20057;-60
2022/12/21 02:54:44;;;;;;;10.40;7.05;;;;;;;;;;5016374;28;20057;-60
2022/12/21 02:57:11;;;;;;;10.93;7.40;;;;;;;;;;5016385;28;20029;-61
2022/12/21 02:59:42;;;;;;;10.02;6.95;;;;;;;;;;5016526;28;20075;-61
2022/12/21 03:02:25;;;;;;;9.73;6.93;;;;;;;;;;5016458;28;20033;-60
2022/12/21 03:05:00;;;;;;;10.15;7.13;;;;;;;;;;5016671;28;20041;-60
2022/12/21 03:07:37;;;;;;;10.20;6.85;;;;;;;;;;5016516;28;20386;-62
2022/12/21 03:10:12;;;;;;;10.35;6.82;;;;;;;;;;5016628;28;20026;-60
2022/12/21 03:13:02;;;;;;;10.63;7.10;;;;;;;;;;5016460;28;20064;-60
2022/12/21 03:15:37;;;;;;;9.02;6.72;;;;;;;;;;5016121;28;20450;-62
2022/12/21 03:18:25;;;;;;;10.63;7.25;;;;;;;;;;5016273;28;20042;-60
2022/12/21 03:21:02;;;;;;;11.98;7.00;;;;;;;;;;5015878;28;20038;-62
2022/12/21 03:23:40;;;;;;;12.32;6.95;;;;;;;;;;5016365;28;20036;-61
2022/12/21 03:26:32;;;;;;;10.32;7.40;;;;;;;;;;5016071;28;20043;-60
2022/12/21 03:28:59;;;;;;;11.30;7.32;;;;;;;;;;4996346;28;20092;-61
2022/12/21 03:31:29;;;;;;;11.93;6.85;;;;;;;;;;5015951;28;20050;-60
2022/12/21 03:34:08;;;;;;;9.88;6.43;;;;;;;;;;5015908;28;20026;-61
2022/12/21 03:36:44;;;;;;;11.13;7.53;;;;;;;;;;5016012;28;20034;-60
2022/12/21 03:39:15;;;;;;;8.40;5.90;;;;;;;;;;5015774;28;20429;-60
2022/12/21 03:41:50;;;;;;;9.27;6.68;;;;;;;;;;5015689;28;20524;-61
2022/12/21 03:44:22;;;;;;;11.80;6.97;;;;;;;;;;5015874;28;20022;-61
2022/12/21 03:46:55;;;;;;;10.43;7.20;;;;;;;;;;5015601;28;20087;-60
2022/12/21 03:49:29;;;;;;;11.45;7.35;;;;;;;;;;5015789;28;20018;-60
2022/12/21 03:51:59;;;;;;;11.35;6.80;;;;;;;;;;5015563;28;20030;-61
2022/12/21 03:54:43;;;;;;;10.93;7.30;;;;;;;;;;5015525;28;20022;-60
2022/12/21 03:57:10;;;;;;;10.05;7.18;;;;;;;;;;5015730;28;20026;-61
2022/12/21 03:59:40;;;;;;;9.95;6.80;;;;;;;;;;5015323;28;20473;-61
2022/12/21 04:02:15;;;;;;;12.38;7.40;;;;;;;;;;5015650;28;20441;-61
2022/12/21 04:04:49;;;;;;;9.10;6.45;;;;;;;;;;5014605;28;20394;-62
2022/12/21 04:07:23;;;;;;;10.75;7.15;;;;;;;;;;5015552;28;20036;-61
2022/12/21 04:09:55;;;;;;;10.90;6.72;;;;;;;;;;5015373;28;20022;-60
2022/12/21 04:15:19;;;;;;;11.23;7.20;;;;;;;;;;5015463;28;20029;-60
2022/12/21 04:17:48;;;;;;;10.05;6.43;;;;;;;;;;5015007;28;20026;-59
2022/12/21 04:20:22;;;;;;;10.80;7.03;;;;;;;;;;5014984;28;20093;-60
2022/12/21 04:28:28;;;;;;;9.00;6.22;;;;;;;;;;5015251;28;20044;-61
2022/12/21 04:30:55;;;;;;;9.88;6.72;;;;;;;;;;5014837;28;20018;-60
2022/12/21 04:33:23;;;;;;;8.95;6.70;;;;;;;;;;4997243;28;20030;-61
2022/12/21 04:38:37;;;;;;;8.88;6.40;;;;;;;;;;5014523;28;20120;-61
2022/12/21 04:41:04;;;;;;;9.60;6.57;;;;;;;;;;5013628;28;20105;-61
2022/12/21 04:43:29;;;;;;;9.55;6.82;;;;;;;;;;5013364;28;20553;-61
2022/12/21 04:46:03;;;;;;;10.80;7.18;;;;;;;;;;5013684;28;20100;-61
2022/12/21 04:48:29;;;;;;;11.20;7.50;;;;;;;;;;5014072;28;20473;-61
2022/12/21 04:50:55;;;;;;;10.88;6.80;;;;;;;;;;5012953;28;20021;-61
2022/12/21 04:53:21;;;;;;;9.85;6.43;;;;;;;;;;5013819;28;20091;-61
2022/12/21 04:55:47;;;;;;;9.73;6.65;;;;;;;;;;5014354;28;20025;-60
2022/12/21 04:58:12;;;;;;;10.23;6.82;;;;;;;;;;5014205;28;20037;-61
2022/12/21 05:00:38;;;;;;;9.05;6.75;;;;;;;;;;5014345;28;20044;-60
2022/12/21 05:03:04;;;;;;;9.23;6.50;;;;;;;;;;5014268;28;20026;-60
2022/12/21 05:05:30;;;;;;;9.68;6.38;;;;;;;;;;5014260;28;20056;-61
2022/12/21 05:07:55;;;;;;;9.88;6.53;;;;;;;;;;5014195;28;20458;-60
2022/12/21 05:10:21;;;;;;;9.77;7.30;;;;;;;;;;5014069;28;20153;-61
2022/12/21 05:12:47;;;;;;;9.88;6.78;;;;;;;;;;5014034;28;20025;-61
2022/12/21 05:15:13;;;;;;;10.10;7.18;;;;;;;;;;5013983;28;20072;-61
2022/12/21 05:17:43;;;;;;;12.77;7.32;;;;;;;;;;5012736;28;20189;-61
2022/12/21 05:20:08;;;;;;;9.48;6.80;;;;;;;;;;5013962;28;20520;-61
2022/12/21 05:22:34;;;;;;;9.38;6.70;;;;;;;;;;5013808;28;20038;-60
2022/12/21 05:25:00;;;;;;;10.40;6.97;;;;;;;;;;5013757;28;20026;-60
2022/12/21 05:27:25;;;;;;;10.30;7.10;;;;;;;;;;5013689;28;20026;-61
2022/12/21 05:29:51;;;;;;;10.32;6.82;;;;;;;;;;5013613;28;20026;-61
2022/12/21 05:32:16;;;;;;;9.80;6.75;;;;;;;;;;5013629;28;20026;-62
2022/12/21 05:34:42;;;;;;;10.25;6.90;;;;;;;;;;5013588;28;20045;-60
2022/12/21 05:37:08;;;;;;;9.75;6.68;;;;;;;;;;5013562;28;20026;-61
2022/12/21 05:39:34;;;;;;;10.38;6.65;;;;;;;;;;5013528;28;20386;-60
2022/12/21 05:42:01;;;;;;;9.63;6.75;;;;;;;;;;4995982;28;20413;-60
2022/12/21 05:44:27;;;;;;;9.23;6.35;;;;;;;;;;5013446;28;20032;-61
2022/12/21 05:46:52;;;;;;;10.00;6.85;;;;;;;;;;4995752;28;20125;-62
2022/12/21 05:49:18;;;;;;;12.07;6.93;;;;;;;;;;5013604;28;20045;-61
2022/12/21 05:51:47;;;;;;;8.95;6.45;;;;;;;;;;4995709;28;20464;-60
2022/12/21 05:54:13;;;;;;;8.48;6.15;;;;;;;;;;5013279;28;20029;-61
2022/12/21 05:56:38;;;;;;;11.25;7.10;;;;;;;;;;5013179;28;20026;-61
2022/12/21 05:59:04;;;;;;;9.43;6.63;;;;;;;;;;5013254;28;20117;-60
2022/12/21 06:01:30;;;;;;;10.15;6.85;;;;;;;;;;5013394;28;20601;-60
2022/12/21 06:03:55;;;;;;;9.40;6.55;;;;;;;;;;5013130;28;20381;-61
2022/12/21 06:06:21;;;;;;;10.00;6.50;;;;;;;;;;5013035;28;20026;-61
2022/12/21 06:08:46;;;;;;;9.63;6.72;;;;;;;;;;5013367;28;20092;-60
2022/12/21 06:11:17;;;;;;;10.23;6.88;;;;;;;;;;5012843;28;20469;-60
2022/12/21 06:13:43;;;;;;;8.75;6.38;;;;;;;;;;5012992;28;20026;-61
2022/12/21 06:16:14;;;;;;;10.43;6.80;;;;;;;;;;5012834;28;20025;-62
2022/12/21 06:18:40;;;;;;;11.25;6.63;;;;;;;;;;5012809;28;20032;-60
2022/12/21 06:21:07;;;;;;;10.80;7.05;;;;;;;;;;5012920;28;20041;-61
2022/12/21 06:23:32;;;;;;;10.25;7.30;;;;;;;;;;5012837;28;20022;-61
2022/12/21 06:26:00;;;;;;;10.27;6.53;;;;;;;;;;5012896;28;20041;-61
2022/12/21 06:28:26;;;;;;;8.93;6.15;;;;;;;;;;5012450;28;20108;-61
2022/12/21 06:30:53;;;;;;;10.32;6.40;;;;;;;;;;5012706;28;20022;-60
2022/12/21 06:33:20;;;;;;;9.80;6.30;;;;;;;;;;5012723;28;20026;-61
2022/12/21 06:35:46;;;;;;;8.68;6.28;;;;;;;;;;5012674;28;20482;-60
2022/12/21 06:38:12;;;;;;;9.63;6.53;;;;;;;;;;5012442;28;20030;-60
2022/12/21 06:40:37;;;;;;;10.75;7.28;;;;;;;;;;5012643;28;20156;-60
2022/12/21 06:43:03;;;;;;;10.80;6.53;;;;;;;;;;4994978;28;20382;-61
2022/12/21 06:45:28;;;;;;;11.80;7.32;;;;;;;;;;4994970;28;20545;-61
2022/12/21 06:47:54;;;;;;;9.15;6.38;;;;;;;;;;5012557;28;20026;-61
2022/12/21 06:50:21;;;;;;;9.43;6.60;;;;;;;;;;4995315;28;20026;-61
2022/12/21 06:52:47;;;;;;;9.68;6.82;;;;;;;;;;5012407;28;20022;-61
2022/12/21 06:55:13;;;;;;;10.10;7.07;;;;;;;;;;5012724;28;20477;-61
2022/12/21 06:57:39;;;;;;;8.77;6.32;;;;;;;;;;5012312;28;20038;-61
2022/12/21 07:00:05;;;;;;;8.88;5.97;;;;;;;;;;5012375;28;20052;-61
2022/12/21 07:02:31;;;;;;;9.07;6.35;;;;;;;;;;5012353;28;20392;-61
2022/12/21 07:04:57;;;;;;;11.18;7.43;;;;;;;;;;5012369;28;20105;-61
2022/12/21 07:07:23;;;;;;;9.40;6.60;;;;;;;;;;4994801;28;20125;-61
2022/12/21 07:09:48;;;;;;;10.23;6.35;;;;;;;;;;5012432;28;20105;-62
2022/12/21 07:12:14;;;;;;;9.63;6.93;;;;;;;;;;4994772;28;20110;-61
2022/12/21 07:14:39;;;;;;;9.73;6.88;;;;;;;;;;5012500;28;20022;-61
2022/12/21 07:17:05;;;;;;;8.85;6.60;;;;;;;;;;5012158;28;20561;-61
2022/12/21 07:19:31;;;;;;;11.23;6.97;;;;;;;;;;5012209;28;20113;-61
2022/12/21 07:21:56;;;;;;;9.05;6.47;;;;;;;;;;5012411;28;20385;-61
2022/12/21 07:24:22;;;;;;;10.27;7.00;;;;;;;;;;5012171;28;20436;-61
2022/12/21 07:26:47;;;;;;;9.32;6.57;;;;;;;;;;5012354;28;20030;-61
2022/12/21 07:29:13;;;;;;;10.98;7.15;;;;;;;;;;5012036;28;20026;-61
2022/12/21 07:31:39;;;;;;;9.65;6.20;;;;;;;;;;5012240;28;20030;-61
2022/12/21 07:34:04;;;;;;;9.68;6.07;;;;;;;;;;5012209;28;20115;-61
2022/12/21 07:36:30;;;;;;;10.10;6.90;;;;;;;;;;5012352;28;20489;-61
2022/12/21 07:38:55;;;;;;;9.93;7.20;;;;;;;;;;4994828;28;20030;-60
2022/12/21 07:41:22;;;;;;;10.77;7.10;;;;;;;;;;5014453;28;20183;-61
2022/12/21 07:43:49;;;;;;;12.30;7.60;;;;;;;;;;5015620;28;20045;-62
2022/12/21 07:46:16;;;;;;;8.73;6.47;;;;;;;;;;4997934;28;20375;-62
2022/12/21 07:48:42;;;;;;;8.35;6.18;;;;;;;;;;4997946;28;20080;-61
2022/12/21 07:51:07;;;;;;;9.38;6.68;;;;;;;;;;4997968;28;20418;-62
2022/12/21 07:53:33;;;;;;;9.25;6.50;;;;;;;;;;5015686;28;20064;-61
2022/12/21 07:56:01;;;;;;;9.02;6.35;;;;;;;;;;4997821;28;20488;-61
2022/12/21 07:58:26;;;;;;;10.20;6.78;;;;;;;;;;5015326;28;20048;-62
2022/12/21 08:00:52;;;;;;;9.80;6.53;;;;;;;;;;5015174;28;20025;-61
2022/12/21 08:03:18;;;;;;;11.38;6.72;;;;;;;;;;4997985;28;20050;-61
2022/12/21 08:05:43;;;;;;;9.30;6.55;;;;;;;;;;5012704;28;20022;-62
2022/12/21 08:08:09;;;;;;;9.73;6.35;;;;;;;;;;5010433;28;20079;-63
2022/12/21 08:10:34;;;;;;;8.40;6.03;;;;;;;;;;5006122;28;20062;-62
2022/12/21 08:13:00;;;;;;;10.10;6.90;;;;;;;;;;5007326;28;20025;-64
2022/12/21 08:15:26;;;;;;;9.82;6.85;;;;;;;;;;5001039;28;20022;-62
2022/12/21 08:17:53;;;;;;;8.95;6.72;;;;;;;;;;4985850;28;20029;-63
2022/12/21 08:20:19;;;;;;;8.43;6.10;;;;;;;;;;5000326;28;20570;-63
2022/12/21 08:22:45;;;;;;;9.70;6.68;;;;;;;;;;4988244;28;20053;-62
2022/12/21 08:25:10;;;;;;;8.65;6.05;;;;;;;;;;5014864;28;20111;-61
2022/12/21 08:27:37;;;;;;;10.10;6.80;;;;;;;;;;5012911;28;20026;-62
2022/12/21 08:30:03;;;;;;;9.73;6.80;;;;;;;;;;5012437;28;20026;-61
2022/12/21 08:32:29;;;;;;;10.82;6.78;;;;;;;;;;5007495;28;20019;-63
2022/12/21 08:34:55;;;;;;;9.07;6.30;;;;;;;;;;5002072;28;20041;-61
2022/12/21 08:37:21;;;;;;;9.70;6.50;;;;;;;;;;4981364;28;20063;-62
2022/12/21 08:39:46;;;;;;;9.80;6.32;;;;;;;;;;5008341;28;20478;-62
2022/12/21 08:42:13;;;;;;;8.52;6.28;;;;;;;;;;5012929;28;20081;-62
2022/12/21 08:44:38;;;;;;;9.65;6.50;;;;;;;;;;5012846;28;20042;-62
2022/12/21 08:47:06;;;;;;;10.40;6.43;;;;;;;;;;5012239;28;20036;-62
2022/12/21 08:49:31;;;;;;;9.38;6.65;;;;;;;;;;4994794;28;20030;-62
2022/12/21 08:51:57;;;;;;;9.73;6.57;;;;;;;;;;5012592;28;20096;-62
2022/12/21 08:54:24;;;;;;;9.60;6.53;;;;;;;;;;5012755;28;20041;-62
2022/12/21 08:56:49;;;;;;;9.88;6.85;;;;;;;;;;5012887;28;20036;-62
2022/12/21 08:59:17;;;;;;;9.85;6.47;;;;;;;;;;5012486;28;20022;-62
2022/12/21 09:01:43;;;;;;;9.82;6.88;;;;;;;;;;5009249;28;20030;-61
2022/12/21 09:04:09;;;;;;;9.70;6.43;;;;;;;;;;5012106;28;20034;-62
2022/12/21 09:06:34;;;;;;;10.43;6.20;;;;;;;;;;5012507;28;20535;-62
2022/12/21 09:09:00;;;;;;;9.10;6.30;;;;;;;;;;5012563;28;20591;-62
2022/12/21 09:11:27;;;;;;;7.55;6.18;;;;;;;;;;4995002;28;20026;-62
2022/12/21 09:13:53;;;;;;;9.23;6.43;;;;;;;;;;5010588;28;20030;-62
2022/12/21 09:16:21;;;;;;;10.77;6.82;;;;;;;;;;5011050;28;20044;-62
2022/12/21 09:18:48;;;;;;;9.05;6.28;;;;;;;;;;5010733;28;20041;-62
2022/12/21 09:21:15;;;;;;;9.90;6.53;;;;;;;;;;5011016;28;20513;-62
2022/12/21 09:23:42;;;;;;;9.48;6.63;;;;;;;;;;4994447;28;20072;-62
2022/12/21 09:26:10;;;;;;;9.27;6.50;;;;;;;;;;5012166;28;20750;-62
2022/12/21 09:28:36;;;;;;;8.55;6.25;;;;;;;;;;5011849;28;20037;-62
2022/12/21 09:31:20;;;;;;;10.23;6.55;;;;;;;;;;5010800;28;20030;-62
2022/12/21 09:33:46;;;;;;;10.95;6.40;;;;;;;;;;4992450;28;20030;-62
2022/12/21 09:36:12;;;;;;;8.73;6.53;;;;;;;;;;4992447;28;20113;-62
2022/12/21 09:38:38;;;;;;;9.05;6.50;;;;;;;;;;4992037;28;20561;-62
2022/12/21 09:41:06;;;;;;;9.80;6.72;;;;;;;;;;5001572;28;20040;-63
2022/12/21 09:44:02;;;;;;;10.05;6.53;;;;;;;;;;5031368;28;20037;-62
2022/12/21 09:46:28;;;;;;;10.27;6.53;;;;;;;;;;5031507;28;20060;-62
2022/12/21 09:48:59;;;;;;;9.13;5.82;;;;;;;;;;5031533;28;20384;-62
2022/12/21 09:51:27;;;;;;;9.73;6.47;;;;;;;;;;5031397;28;20029;-62
2022/12/21 09:54:00;;;;;;;9.50;6.13;;;;;;;;;;5031457;28;20116;-62
2022/12/21 09:56:27;;;;;;;8.65;6.55;;;;;;;;;;5024580;28;20113;-63
2022/12/21 09:58:54;;;;;;;9.10;6.65;;;;;;;;;;5011412;28;20029;-62
2022/12/21 10:01:29;;;;;;;9.82;6.28;;;;;;;;;;4993865;28;20358;-62
2022/12/21 10:04:10;;;;;;;9.57;6.55;;;;;;;;;;5010891;28;20128;-62
2022/12/21 10:07:02;;;;;;;8.52;6.55;;;;;;;;;;5011440;28;20030;-62
2022/12/21 10:09:34;;;;;;;9.20;6.75;;;;;;;;;;5011563;28;20103;-62
2022/12/21 10:12:26;;;;;;;9.15;6.40;;;;;;;;;;5011344;28;20064;-63
2022/12/21 10:15:07;;;;;;;11.50;6.53;;;;;;;;;;4980625;28;20038;-62
2022/12/21 10:17:41;;;;;;;9.90;6.72;;;;;;;;;;5011243;28;20095;-62
2022/12/21 10:20:32;;;;;;;8.82;6.38;;;;;;;;;;5011175;28;20025;-62
2022/12/21 10:23:01;;;;;;;12.20;6.57;;;;;;;;;;5011325;28;20152;-62
2022/12/21 10:25:49;;;;;;;10.80;7.38;;;;;;;;;;5011213;28;20025;-62
2022/12/21 10:28:23;;;;;;;8.02;6.32;;;;;;;;;;4998150;28;20034;-62
2022/12/21 10:31:10;;;;;;;7.88;5.82;;;;;;;;;;5008642;28;20083;-62
2022/12/21 10:33:39;;;;;;;9.52;6.75;;;;;;;;;;4993312;28;20108;-61
2022/12/21 10:36:05;;;;;;;9.57;6.47;;;;;;;;;;5011024;28;20655;-62
2022/12/21 10:38:34;;;;;;;9.20;6.20;;;;;;;;;;4994457;28;20041;-63
2022/12/21 10:41:08;;;;;;;9.50;6.75;;;;;;;;;;5010102;28;20128;-62
2022/12/21 10:43:39;;;;;;;11.13;6.70;;;;;;;;;;5011023;28;20538;-61
2022/12/21 10:46:05;;;;;;;8.85;6.47;;;;;;;;;;5011238;28;20026;-62
2022/12/21 10:48:32;;;;;;;9.23;5.90;;;;;;;;;;5010326;28;20378;-62
2022/12/21 10:51:13;;;;;;;9.10;6.70;;;;;;;;;;5010298;28;20393;-63
2022/12/21 10:53:39;;;;;;;21.30;10.55;;;;;;;;;;5010731;28;20108;-64
2022/12/21 10:56:05;;;;;;;17.02;10.75;;;;;;;;;;5010853;28;20109;-63
2022/12/21 10:58:35;;;;;;;18.00;9.80;;;;;;;;;;5010381;28;20029;-62
2022/12/21 11:01:06;;;;;;;14.60;8.63;;;;;;;;;;4993179;28;20037;-64
2022/12/21 11:03:36;;;;;;;16.38;8.15;;;;;;;;;;5009889;28;20270;-63
2022/12/21 11:06:13;;;;;;;10.93;8.15;;;;;;;;;;5010162;28;20038;-63
2022/12/21 11:08:46;;;;;;;11.98;8.18;;;;;;;;;;5010486;28;20389;-63
2022/12/21 11:11:41;;;;;;;11.52;8.02;;;;;;;;;;5011002;28;20379;-63
2022/12/21 11:14:15;;;;;;;12.05;7.40;;;;;;;;;;4993172;28;20656;-63
2022/12/21 11:16:42;;;;;;;13.90;7.75;;;;;;;;;;5010540;28;20037;-63
2022/12/21 11:19:19;;;;;;;11.93;7.20;;;;;;;;;;5014229;28;20033;-64
2022/12/21 11:21:47;;;;;;;11.65;7.85;;;;;;;;;;5014437;28;20466;-63
2022/12/21 11:24:21;;;;;;;12.43;7.75;;;;;;;;;;5014392;28;20030;-63
2022/12/21 11:26:51;;;;;;;11.55;7.18;;;;;;;;;;5014158;28;20030;-63
2022/12/21 11:29:28;;;;;;;14.55;7.38;;;;;;;;;;5014189;28;20026;-63
2022/12/21 11:31:55;;;;;;;11.40;7.32;;;;;;;;;;5014317;28;20030;-63
2022/12/21 11:34:44;;;;;;;12.48;7.55;;;;;;;;;;5014326;28;20030;-63
2022/12/21 11:37:36;;;;;;;11.68;7.90;;;;;;;;;;4996357;28;20068;-63
2022/12/21 11:40:11;;;;;;;12.07;7.03;;;;;;;;;;5014059;28;20029;-63
2022/12/21 11:42:59;;;;;;;12.13;7.82;;;;;;;;;;5013852;28;20077;-63
2022/12/21 11:45:40;;;;;;;13.40;7.68;;;;;;;;;;5014220;28;20033;-63
2022/12/21 11:48:20;;;;;;;16.25;7.80;;;;;;;;;;5013871;28;20061;-63
2022/12/21 11:51:03;;;;;;;10.68;7.20;;;;;;;;;;5013909;28;20040;-63
2022/12/21 11:53:41;;;;;;;11.00;6.53;;;;;;;;;;5013844;28;20034;-63
2022/12/21 11:56:15;;;;;;;10.88;6.88;;;;;;;;;;5013984;28;20631;-63
2022/12/21 11:59:02;;;;;;;12.02;7.32;;;;;;;;;;5013351;28;20045;-63
2022/12/21 12:01:58;;;;;;;11.70;7.45;;;;;;;;;;5013958;28;20048;-63
2022/12/21 12:04:56;;;;;;;10.57;7.90;;;;;;;;;;5013533;28;20033;-64
2022/12/21 12:07:40;;;;;;;11.30;6.85;;;;;;;;;;5013718;28;20496;-63
2022/12/21 12:10:38;;;;;;;14.48;7.38;;;;;;;;;;5013784;28;20046;-63
2022/12/21 12:13:26;;;;;;;9.43;6.80;;;;;;;;;;5007793;28;20074;-62
2022/12/21 12:16:10;;;;;;;12.60;7.72;;;;;;;;;;5013461;28;20053;-62
2022/12/21 12:18:42;;;;;;;13.05;7.07;;;;;;;;;;5013114;28;20029;-61
2022/12/21 12:21:25;;;;;;;9.77;6.75;;;;;;;;;;5013431;28;20033;-61
2022/12/21 12:24:12;;;;;;;10.93;7.50;;;;;;;;;;5013446;28;20036;-61
2022/12/21 12:27:06;;;;;;;9.43;6.80;;;;;;;;;;5012526;28;20072;-59
2022/12/21 12:29:35;;;;;;;9.35;7.00;;;;;;;;;;5013539;28;20034;-60
2022/12/21 12:32:32;;;;;;;10.05;6.80;;;;;;;;;;5013112;28;20442;-60
2022/12/21 12:35:21;;;;;;;11.77;6.60;;;;;;;;;;5013448;28;20091;-59
2022/12/21 12:38:06;;;;;;;8.40;6.63;;;;;;;;;;5013041;28;20034;-60
2022/12/21 12:40:50;;;;;;;10.45;7.30;;;;;;;;;;5013145;28;20034;-60
2022/12/21 12:44:00;;;;;;;10.85;6.88;;;;;;;;;;5013526;28;20121;-60
2022/12/21 12:47:07;;;;;;;10.93;7.03;;;;;;;;;;5011729;28;20117;-61
2022/12/21 12:50:14;;;;;;;11.65;7.40;;;;;;;;;;5010806;28;20041;-64
2022/12/21 12:52:49;;;;;;;12.30;7.47;;;;;;;;;;4931048;29;20059;-60
2022/12/21 12:55:29;;;;;;;10.18;7.20;;;;;;;;;;4932806;29;20043;-60
2022/12/21 12:58:13;;;;;;;12.10;7.15;;;;;;;;;;4984006;28;20038;-60
2022/12/21 13:01:14;;;;;;;9.35;6.75;;;;;;;;;;5011108;28;20041;-60
2022/12/21 13:03:48;;;;;;;10.20;7.05;;;;;;;;;;4987770;28;20104;-60
2022/12/21 13:06:17;;;;;;;10.77;7.40;;;;;;;;;;5012587;28;20030;-60
2022/12/21 13:08:57;;;;;;;9.48;7.07;;;;;;;;;;5012208;28;20038;-61
2022/12/21 13:11:26;;;;;;;9.45;6.80;;;;;;;;;;5012468;28;20033;-61
2022/12/21 13:14:05;;;;;;;9.98;6.63;;;;;;;;;;4994825;28;20152;-62
2022/12/21 13:16:50;;;;;;;10.70;6.95;;;;;;;;;;5011460;28;20041;-59
2022/12/21 13:19:17;;;;;;;9.52;6.72;;;;;;;;;;5012286;28;20034;-60
2022/12/21 13:21:44;;;;;;;9.57;6.97;;;;;;;;;;5012203;28;20037;-60
2022/12/21 13:24:37;;;;;;;9.70;7.07;;;;;;;;;;5012257;28;20366;-64
2022/12/21 13:27:07;;;;;;;8.27;6.68;;;;;;;;;;5012198;28;20477;-60
2022/12/21 13:30:04;;;;;;;8.50;6.40;;;;;;;;;;5011861;28;20052;-63
2022/12/21 13:32:37;;;;;;;10.95;7.22;;;;;;;;;;5012089;28;20488;-60
2022/12/21 13:35:06;;;;;;;10.48;6.57;;;;;;;;;;5011905;28;20116;-60
2022/12/21 13:37:35;;;;;;;9.93;6.80;;;;;;;;;;5011225;28;20030;-60
2022/12/21 13:40:19;;;;;;;11.52;6.88;;;;;;;;;;5011700;28;20037;-64
2022/12/21 13:42:52;;;;;;;10.63;6.68;;;;;;;;;;5008684;28;20054;-60
2022/12/21 13:45:34;;;;;;;9.45;7.05;;;;;;;;;;5011767;28;20037;-64
2022/12/21 13:48:01;;;;;;;10.77;6.85;;;;;;;;;;5011569;28;20030;-61
2022/12/21 13:50:49;;;;;;;10.73;7.32;;;;;;;;;;5011813;28;20028;-63
2022/12/21 13:53:39;;;;;;;9.85;6.78;;;;;;;;;;5005156;28;20549;-60
2022/12/21 13:56:41;;;;;;;10.52;7.00;;;;;;;;;;4992053;28;20108;-60
2022/12/21 13:59:29;;;;;;;10.20;7.15;;;;;;;;;;4992017;28;20034;-61
2022/12/21 14:02:37;;;;;;;10.27;7.15;;;;;;;;;;4992085;28;20607;-60
2022/12/21 14:05:13;;;;;;;10.95;7.43;;;;;;;;;;4942033;28;20046;-62
2022/12/21 14:08:02;;;;;;;8.90;6.55;;;;;;;;;;4974414;28;20030;-63
2022/12/21 14:10:59;;;;;;;9.65;7.15;;;;;;;;;;4991639;28;20034;-60
2022/12/21 14:13:41;;;;;;;10.25;6.38;;;;;;;;;;4998552;28;20041;-64
2022/12/21 14:16:25;;;;;;;13.38;7.00;;;;;;;;;;5011371;28;20026;-65
2022/12/21 14:18:56;;;;;;;14.02;7.18;;;;;;;;;;4991666;28;20221;-65
2022/12/21 14:21:28;;;;;;;12.82;7.07;;;;;;;;;;4994491;28;20021;-66
2022/12/21 14:24:03;;;;;;;10.15;7.10;;;;;;;;;;5010116;28;20068;-64
2022/12/21 14:26:44;;;;;;;10.18;6.80;;;;;;;;;;5011046;28;20045;-60
2022/12/21 14:29:21;;;;;;;12.50;7.53;;;;;;;;;;5011073;28;20044;-61
2022/12/21 14:32:09;;;;;;;9.15;7.10;;;;;;;;;;5012315;28;20030;-60
2022/12/21 14:35:00;;;;;;;10.38;7.30;;;;;;;;;;4985843;28;20112;-60
2022/12/21 14:37:30;;;;;;;9.15;7.28;;;;;;;;;;5003577;28;20025;-60
2022/12/21 14:40:03;;;;;;;12.73;7.80;;;;;;;;;;5011116;28;20034;-61
2022/12/21 14:42:41;;;;;;;11.85;7.30;;;;;;;;;;5010594;28;20046;-61
2022/12/21 14:45:09;;;;;;;12.18;6.65;;;;;;;;;;5011236;28;20068;-64
2022/12/21 14:47:36;;;;;;;10.13;6.72;;;;;;;;;;5010887;28;20057;-62
2022/12/21 14:50:20;;;;;;;8.98;6.78;;;;;;;;;;5010542;28;20069;-59
2022/12/21 14:53:02;;;;;;;13.55;7.55;;;;;;;;;;4993069;28;20033;-62
2022/12/21 14:55:43;;;;;;;9.45;6.50;;;;;;;;;;5010929;28;20022;-60
2022/12/21 14:58:15;;;;;;;9.80;7.10;;;;;;;;;;5010856;28;20068;-60
2022/12/21 15:01:12;;;;;;;10.18;7.03;;;;;;;;;;5011054;28;20056;-60
2022/12/21 15:03:43;;;;;;;10.60;7.28;;;;;;;;;;5011261;28;20022;-61
2022/12/21 15:06:11;;;;;;;10.23;7.00;;;;;;;;;;5010799;28;20022;-60
2022/12/21 15:08:40;;;;;;;10.90;7.40;;;;;;;;;;5010781;28;20091;-61
2022/12/21 15:11:19;;;;;;;10.00;7.15;;;;;;;;;;5009759;28;20097;-59
2022/12/21 15:14:03;;;;;;;9.38;6.72;;;;;;;;;;5010185;28;20469;-61
2022/12/21 15:16:30;;;;;;;9.88;6.90;;;;;;;;;;5010874;28;20061;-59
2022/12/21 15:19:30;;;;;;;10.55;6.93;;;;;;;;;;5010587;28;20469;-60